Portada
METAR-TAF:

METAR-TAF

Aeropuertos :

Aeropuerto Internacional de Bagdad

Bagdad, Iraq

latitud: 33-15-45N, longitud: 44-14-04E, altitud: 35 m

Observación

El informe se hizo hace 59 minutos, a las 11:00 UTC
Viento 5 kt del sur-suroeste, variando entre sur y oeste-noroeste
Temperatura 23°C
Humedad 47%
Presión 1018 hPa
Visibilidad 10 km o más
sin nubes por debajo de 1500 m y sin presencia de cumulonimbus.

METAR: ORBI 211100Z 20005KT 170V290 CAVOK 23/11 Q1018 NOSIG

Hora: 14:59 (11:59 UTC)

Pronóstico

El informe se hizo hace 7 horas y 59 minutos, a las 04:00 UTC
Pronóstico válido del 21 a las 06 UTC al 22 a las 06 UTC
Viento 3 kt con dirección variable
Visibilidad: 7000 m
Nubes dispersas a una altura de 3000 ft
Cielo nuboso a una altura de 8000 ft

TAF: ORBI 210400Z 2106/2206 VRB03KT 7000 SCT030 BKN080

Observaciones y pronósticos meteorológicos de más de 4000 aeropuertos (mensajes METAR y TAF).

Los puntos amarillos y rojos representan las estaciones disponibles.

Ponga el ratón en el punto deseado para ver el nombre de la estación.

Haga clic para ver las observaciones y los pronósticos meteorológicos.

Para cambiar el mapa : haga clic en los botones verdes con una cruz de color negro para hacer un zoom, en el botón verde con un guión para alejar o en las flechas verdes para mapas adyacentes.


METAR-TAF: